Montes Claros, Brazil
Current Conditions -  °F | °C
As of 8:00 PM on Wednesday 22 Oct 2014 (Local Time) from SBMK Reporting Station
Broken Clouds Broken Clouds  
Wind Chill: 77°   Ceiling: 10000
Heat Index: 79°   Visibility: 6mi
Dew Point: 59°   Wind: 9mph
Humidity: 54%   Direction: 100°E
Pressure: 30.06"   Gusts: NA
Location:  16.72°S, 43.86°W
Report Text: SBMK 222200Z 10008KT 9999 SCT045 BKN100 25/15 Q1018
Loading
Personal Weather Stations






























Interactive Weather Map
Tropical Storm Tracking
New forecast layout! Learn more

10-Day Weather Forecast

Advertisements
Track Severe Weather on mobile